Terminal Aerodrome Forecast
Issued by NWS Wichita, KS

Home | Current Version | Previous Version | Text Only | Print | Product List | Glossary On
Versions: 1 2 3 4 5 6 7 8 9 10 11 12 13 14 15 16 17 18 19 20 21 22 23 24 25 26 27 28 29
000
FTUS43 KICT 211647 AAB
TAFICT
TAF AMD
KICT 211647Z 2117/2212 18009KT 2SM BR OVC008
      TEMPO 2117/2121 1/2SM -DZ FG OVC004
     FM212100 17015G21KT P6SM OVC008
     FM220300 17015KT 5SM BR OVC004=

USA.gov is the U.S. government's official web portal to all federal, state and local government web resources and services.